Time;durP1;ratioP1;P1;durP2;ratioP2;P2;SDS_P1;SDS_P2;PMS_P1;PMS_P2;Temp;Humidity;BMP_temperature;BMP_pressure;BME280_temperature;BME280_humidity;BME280_pressure;Samples;Min_cycle;Max_cycle;Signal;HPM_P1;HPM_P2
2022/11/11 00:01:15;;;;;;;51.50;27.00;;;;;;;8.39;78.23;100297.94;103575;1290;107128;-70
2022/11/11 00:03:44;;;;;;;52.20;28.10;;;;;;;8.37;78.13;100300.81;103528;1298;98432;-70
2022/11/11 00:06:15;;;;;;;53.30;28.10;;;;;;;8.36;78.23;100302.27;103302;1293;95662;-70
2022/11/11 00:08:47;;;;;;;55.40;31.00;;;;;;;8.35;78.19;100300.75;103452;1290;110696;-69
2022/11/11 00:11:16;;;;;;;51.60;29.30;;;;;;;8.33;78.26;100307.38;103553;1299;97852;-70
2022/11/11 00:13:44;;;;;;;54.20;30.80;;;;;;;8.32;78.29;100310.40;103430;1293;107547;-70
2022/11/11 00:16:18;;;;;;;59.00;32.20;;;;;;;8.32;78.19;100308.48;103539;1291;97866;-71
2022/11/11 00:27:09;;;;;;;57.60;29.00;;;;;;;8.24;78.30;100312.52;103477;1290;107519;-74
2022/11/11 00:29:39;;;;;;;54.00;28.00;;;;;;;8.22;78.22;100315.10;103543;1290;97952;-71
2022/11/11 00:32:25;;;;;;;54.00;28.80;;;;;;;8.20;78.20;100318.86;103515;1298;95206;-70
2022/11/11 00:37:49;;;;;;;53.60;29.20;;;;;;;8.16;78.15;100324.15;103398;1294;97967;-71
2022/11/11 00:40:17;;;;;;;57.10;30.20;;;;;;;8.13;78.12;100325.52;103511;1290;107100;-71
2022/11/11 00:42:45;;;;;;;52.90;28.80;;;;;;;8.11;78.02;100325.27;103469;1290;97896;-69
2022/11/11 00:45:13;;;;;;;50.70;26.40;;;;;;;8.08;78.16;100326.64;103534;1290;97859;-70
2022/11/11 00:53:25;;;;;;;46.20;25.10;;;;;;;7.97;78.12;100319.50;103296;1293;107694;-71
2022/11/11 00:55:57;;;;;;;47.80;26.30;;;;;;;7.95;78.29;100318.54;103428;1285;98103;-70
2022/11/11 00:58:27;;;;;;;52.80;27.30;;;;;;;7.94;78.23;100321.02;103575;1294;97944;-73
2022/11/11 01:00:57;;;;;;;48.20;25.50;;;;;;;7.93;78.13;100319.85;103550;1291;111330;-74
2022/11/11 01:03:27;;;;;;;53.20;27.80;;;;;;;7.91;78.22;100318.50;103550;1298;96938;-70
2022/11/11 01:06:00;;;;;;;49.50;27.00;;;;;;;7.91;78.19;100313.75;103506;1292;107542;-72
2022/11/11 01:08:31;;;;;;;50.20;27.30;;;;;;;7.90;78.25;100315.53;103489;1290;98012;-73
2022/11/11 01:10:58;;;;;;;49.20;26.70;;;;;;;7.88;78.18;100315.42;103442;1294;97842;-71
2022/11/11 01:13:32;;;;;;;51.90;27.40;;;;;;;7.87;78.27;100313.39;103428;1299;111509;-71
2022/11/11 01:16:10;;;;;;;53.60;28.70;;;;;;;7.85;78.22;100312.77;103499;1298;97925;-70
2022/11/11 01:18:40;;;;;;;50.30;25.80;;;;;;;7.83;78.08;100311.42;103477;1278;107319;-70
2022/11/11 01:21:11;;;;;;;51.10;26.40;;;;;;;7.81;78.15;100313.08;103450;1298;96565;-69
2022/11/11 01:23:42;;;;;;;53.90;28.60;;;;;;;7.80;78.08;100314.20;103408;1291;97864;-70
2022/11/11 01:26:20;;;;;;;55.60;29.70;;;;;;;7.77;78.20;100314.13;103468;1290;111114;-71
2022/11/11 01:28:58;;;;;;;49.90;26.00;;;;;;;7.74;78.14;100313.36;103458;1298;97940;-71
2022/11/11 01:31:27;;;;;;;49.00;26.80;;;;;;;7.72;78.25;100318.75;103477;1294;107401;-70
2022/11/11 01:33:56;;;;;;;51.20;27.70;;;;;;;7.72;78.35;100317.88;103519;1298;98369;-69
2022/11/11 01:36:26;;;;;;;51.40;26.90;;;;;;;7.72;78.21;100322.64;103500;1290;97997;-71
2022/11/11 01:38:59;;;;;;;56.10;27.90;;;;;;;7.70;78.25;100320.23;103573;1290;111245;-72
2022/11/11 01:41:36;;;;;;;55.60;28.00;;;;;;;7.69;78.35;100318.70;103321;1300;98527;-71
2022/11/11 01:44:19;;;;;;;52.00;26.70;;;;;;;7.66;78.26;100318.27;103253;1293;106038;-70
2022/11/11 01:47:00;;;;;;;46.30;25.70;;;;;;;7.65;78.26;100325.20;103255;1300;98017;-71
2022/11/11 01:49:48;;;;;;;47.00;26.50;;;;;;;7.63;78.30;100327.08;103280;1300;98425;-71
2022/11/11 01:52:34;;;;;;;49.30;27.90;;;;;;;7.59;78.43;100324.89;103282;1297;110737;-71
2022/11/11 01:55:09;;;;;;;51.00;28.00;;;;;;;7.59;78.45;100324.56;103321;1293;98006;-69
2022/11/11 01:57:53;;;;;;;51.20;28.30;;;;;;;7.58;78.28;100323.88;103305;1291;107421;-71
2022/11/11 02:00:22;;;;;;;52.80;27.20;;;;;;;7.57;78.23;100324.11;103303;1277;97854;-70
2022/11/11 02:03:03;;;;;;;51.80;25.90;;;;;;;7.55;78.19;100324.54;103294;1293;97943;-71
2022/11/11 02:05:44;;;;;;;50.90;26.70;;;;;;;7.52;78.27;100324.30;103302;1293;111126;-70
2022/11/11 02:08:32;;;;;;;50.10;27.20;;;;;;;7.49;78.25;100325.48;103301;1292;97931;-69
2022/11/11 02:11:13;;;;;;;52.20;27.20;;;;;;;7.46;78.21;100329.65;103245;1293;108161;-70
2022/11/11 02:16:31;;;;;;;53.30;28.20;;;;;;;7.42;78.29;100336.35;103349;1296;97927;-69
2022/11/11 02:19:01;;;;;;;50.10;26.00;;;;;;;7.41;78.34;100335.32;103253;1300;111176;-70
2022/11/11 02:21:42;;;;;;;50.10;27.40;;;;;;;7.39;78.24;100339.80;103296;1294;97994;-71
2022/11/11 02:24:16;;;;;;;52.40;25.90;;;;;;;7.39;78.31;100344.75;103255;1301;107453;-70
2022/11/11 02:26:47;;;;;;;52.00;28.10;;;;;;;7.38;78.42;100340.73;103263;1293;97984;-70
2022/11/11 02:29:23;;;;;;;50.10;27.20;;;;;;;7.37;78.39;100347.83;103234;1293;97047;-70
2022/11/11 02:31:52;;;;;;;53.90;29.10;;;;;;;7.37;78.26;100345.20;103312;1300;111298;-70
2022/11/11 02:34:31;;;;;;;50.30;27.10;;;;;;;7.37;78.25;100349.96;103280;1308;97798;-69
2022/11/11 02:37:04;;;;;;;55.10;28.60;;;;;;;7.33;78.26;100348.52;103245;1300;107502;-70
2022/11/11 02:39:37;;;;;;;50.70;27.30;;;;;;;7.30;78.13;100355.52;103240;1293;95247;-71
2022/11/11 02:42:26;;;;;;;53.90;27.40;;;;;;;7.27;78.14;100351.05;103407;1293;97871;-71
2022/11/11 02:44:57;;;;;;;67.00;30.30;;;;;;;7.24;78.18;100353.09;103391;1299;110718;-71
2022/11/11 02:47:26;;;;;;;49.30;27.70;;;;;;;7.21;78.08;100348.98;103343;1299;97915;-69
2022/11/11 02:49:54;;;;;;;47.70;26.90;;;;;;;7.17;78.05;100351.77;103359;1302;107174;-70
2022/11/11 02:52:23;;;;;;;50.60;27.50;;;;;;;7.14;78.12;100355.58;103478;1291;95197;-70
2022/11/11 02:54:51;;;;;;;52.60;27.70;;;;;;;7.12;78.06;100358.52;103485;1293;95123;-70
2022/11/11 02:57:20;;;;;;;50.50;28.40;;;;;;;7.09;78.29;100360.35;103440;1291;111048;-70
2022/11/11 02:59:50;;;;;;;49.70;27.30;;;;;;;7.08;78.15;100362.54;103383;1299;97962;-69
2022/11/11 03:02:20;;;;;;;50.90;28.90;;;;;;;7.05;78.43;100362.63;103402;1292;107523;-68
2022/11/11 03:04:49;;;;;;;53.20;28.30;;;;;;;7.05;78.19;100368.62;103396;1301;97803;-69
2022/11/11 03:07:17;;;;;;;55.00;28.20;;;;;;;7.05;78.42;100371.80;103484;1291;97872;-70
2022/11/11 03:09:47;;;;;;;53.70;28.30;;;;;;;7.05;78.18;100368.09;103414;1299;111758;-72
2022/11/11 03:12:16;;;;;;;50.50;29.00;;;;;;;7.05;78.40;100367.39;103481;1291;98007;-70
2022/11/11 03:14:45;;;;;;;49.50;28.90;;;;;;;7.07;78.43;100373.69;103437;1294;107464;-72
2022/11/11 03:23:08;;;;;;;48.10;27.30;;;;;;;7.08;78.44;100386.52;103443;1290;111167;-70
2022/11/11 03:25:40;;;;;;;52.30;29.80;;;;;;;7.08;78.16;100389.67;103459;1298;97892;-72
2022/11/11 03:28:23;;;;;;;55.50;29.40;;;;;;;7.09;78.23;100390.88;103472;1284;107456;-70
2022/11/11 03:30:52;;;;;;;54.60;28.70;;;;;;;7.11;78.27;100391.16;103497;1291;97889;-71
2022/11/11 03:33:20;;;;;;;53.80;31.30;;;;;;;7.13;78.27;100390.39;103464;1293;98384;-71
2022/11/11 03:35:49;;;;;;;52.60;28.50;;;;;;;7.15;78.40;100391.01;103440;1291;111115;-71
2022/11/11 03:38:22;;;;;;;54.60;29.70;;;;;;;7.17;78.65;100390.75;103417;1299;97941;-70
2022/11/11 03:40:55;;;;;;;56.60;30.10;;;;;;;7.20;78.45;100392.42;103422;1290;107442;-71
2022/11/11 03:43:27;;;;;;;58.80;31.00;;;;;;;7.22;78.55;100393.05;103479;1291;97832;-68
2022/11/11 03:46:00;;;;;;;60.60;31.80;;;;;;;7.24;78.50;100391.39;103468;1290;97963;-70
2022/11/11 03:48:32;;;;;;;53.90;29.70;;;;;;;7.26;78.31;100386.38;103389;1298;111149;-70
2022/11/11 03:51:00;;;;;;;58.50;31.80;;;;;;;7.27;78.34;100384.02;103490;1294;98609;-70
2022/11/11 03:53:28;;;;;;;51.70;30.20;;;;;;;7.31;78.32;100383.56;103423;1290;106054;-71
2022/11/11 03:55:58;;;;;;;50.20;30.10;;;;;;;7.33;78.49;100380.29;103444;1290;96979;-70
2022/11/11 03:58:25;;;;;;;55.10;30.10;;;;;;;7.35;78.45;100379.32;103547;1290;95220;-72
2022/11/11 04:00:54;;;;;;;53.80;31.10;;;;;;;7.36;78.46;100378.73;103447;1294;110855;-71
2022/11/11 04:11:47;;;;;;;55.50;29.90;;;;;;;7.44;78.53;100394.88;103433;1291;97958;-72
2022/11/11 04:17:01;;;;;;;52.60;31.20;;;;;;;7.47;78.69;100389.99;103408;1284;97848;-70
2022/11/11 04:22:15;;;;;;;49.90;28.10;;;;;;;7.53;78.66;100397.90;103414;1290;95298;-71
2022/11/11 04:27:29;;;;;;;51.10;29.40;;;;;;;7.59;78.69;100395.88;103574;1298;111092;-71
2022/11/11 04:29:57;;;;;;;55.30;28.30;;;;;;;7.60;78.64;100395.82;103428;1299;96387;-69
2022/11/11 04:32:34;;;;;;;53.10;29.80;;;;;;;7.63;78.64;100394.30;103335;1291;107083;-70
2022/11/11 04:35:10;;;;;;;54.10;30.70;;;;;;;7.66;78.75;100394.73;103359;1298;95312;-70
2022/11/11 04:37:50;;;;;;;51.30;29.30;;;;;;;7.68;78.63;100393.41;103310;1298;97921;-72
2022/11/11 04:43:05;;;;;;;48.80;28.00;;;;;;;7.73;78.60;100398.50;103367;1290;107556;-70
2022/11/11 04:45:35;;;;;;;50.20;29.30;;;;;;;7.75;78.62;100405.48;103463;1296;106592;-70
2022/11/11 04:48:12;;;;;;;49.10;28.60;;;;;;;7.75;78.54;100405.30;103436;1297;98326;-70
2022/11/11 04:50:43;;;;;;;52.20;28.50;;;;;;;7.75;78.61;100407.25;103484;1290;97890;-71
2022/11/11 04:53:13;;;;;;;53.30;28.40;;;;;;;7.74;78.65;100408.86;103479;1296;110880;-71
2022/11/11 04:58:33;;;;;;;49.00;27.90;;;;;;;7.74;78.59;100410.64;103518;1297;106668;-70
2022/11/11 05:01:02;;;;;;;49.80;28.10;;;;;;;7.73;78.60;100406.10;103582;1297;98489;-70
2022/11/11 05:03:30;;;;;;;54.50;29.70;;;;;;;7.72;78.53;100401.73;103533;1291;95212;-70
2022/11/11 05:08:55;;;;;;;48.50;26.90;;;;;;;7.72;78.63;100401.91;103564;1290;98436;-69
2022/11/11 05:11:28;;;;;;;51.10;27.90;;;;;;;7.72;78.49;100396.45;103454;1298;107437;-70
2022/11/11 05:22:48;;;;;;;49.30;26.70;;;;;;;7.70;78.59;100410.64;103536;1294;97839;-70
2022/11/11 05:25:25;;;;;;;47.10;26.60;;;;;;;7.70;78.53;100410.46;103495;1291;106654;-71
2022/11/11 05:27:54;;;;;;;46.40;27.00;;;;;;;7.71;78.65;100409.57;103433;1298;97985;-71
2022/11/11 05:30:24;;;;;;;49.20;26.70;;;;;;;7.71;78.66;100408.67;103444;1290;97860;-71
2022/11/11 05:32:55;;;;;;;43.50;25.60;;;;;;;7.71;78.57;100406.54;103525;1291;110998;-70
2022/11/11 05:35:22;;;;;;;47.20;26.50;;;;;;;7.70;78.70;100410.61;103516;1296;98429;-70
2022/11/11 05:40:36;;;;;;;50.40;28.60;;;;;;;7.70;78.60;100419.29;103508;1291;98192;-70
2022/11/11 05:43:04;;;;;;;47.40;26.00;;;;;;;7.70;78.62;100426.54;103405;1296;97999;-69
2022/11/11 05:45:32;;;;;;;48.30;26.50;;;;;;;7.70;78.62;100426.17;103424;1296;110263;-71
2022/11/11 05:48:02;;;;;;;45.90;26.50;;;;;;;7.71;78.59;100427.75;103499;1296;96427;-69
2022/11/11 05:50:30;;;;;;;47.10;27.20;;;;;;;7.72;78.62;100431.41;103537;1292;107499;-70
2022/11/11 05:52:59;;;;;;;46.90;26.50;;;;;;;7.73;78.45;100432.05;103457;1298;97891;-71
2022/11/11 05:55:26;;;;;;;45.90;26.50;;;;;;;7.74;78.48;100441.56;103469;1297;98620;-71
2022/11/11 05:57:54;;;;;;;49.00;27.20;;;;;;;7.73;78.56;100444.58;103368;1293;111210;-73
2022/11/11 06:00:22;;;;;;;44.70;25.40;;;;;;;7.75;78.38;100452.09;103466;1291;97877;-69
2022/11/11 06:02:50;;;;;;;45.30;26.20;;;;;;;7.77;78.55;100452.92;103484;1296;108301;-71
2022/11/11 06:05:17;;;;;;;41.90;23.20;;;;;;;7.78;78.55;100453.95;103496;1296;97968;-71
2022/11/11 06:07:45;;;;;;;44.70;24.80;;;;;;;7.80;78.47;100456.71;103412;1290;98381;-70
2022/11/11 06:10:31;;;;;;;45.70;25.30;;;;;;;7.80;78.42;100456.69;103393;1298;110715;-70
2022/11/11 06:13:09;;;;;;;41.60;23.30;;;;;;;7.82;78.55;100463.67;103450;1290;97779;-70
2022/11/11 06:15:40;;;;;;;43.10;23.80;;;;;;;7.83;78.34;100463.48;103481;1297;107534;-72
2022/11/11 06:18:08;;;;;;;44.70;24.70;;;;;;;7.84;78.48;100461.84;103481;1298;97952;-72
2022/11/11 06:20:36;;;;;;;42.70;23.70;;;;;;;7.87;78.43;100466.99;103515;1296;95941;-70
2022/11/11 06:23:06;;;;;;;43.00;23.70;;;;;;;7.89;78.59;100467.62;103481;1298;111876;-70
2022/11/11 06:28:20;;;;;;;47.40;24.70;;;;;;;7.95;78.63;100470.75;103426;1290;107307;-72
2022/11/11 06:30:47;;;;;;;43.80;24.20;;;;;;;7.99;78.58;100474.34;103390;1298;97904;-71
2022/11/11 06:33:20;;;;;;;46.90;23.30;;;;;;;8.01;78.41;100476.00;103434;1296;97941;-71
2022/11/11 06:35:50;;;;;;;39.10;22.70;;;;;;;8.04;78.46;100481.00;103500;1298;111184;-73
2022/11/11 06:38:21;;;;;;;41.80;22.10;;;;;;;8.08;78.34;100478.05;103461;1297;95673;-70
2022/11/11 06:40:48;;;;;;;41.90;23.00;;;;;;;8.11;78.50;100478.96;103375;1295;107757;-70
2022/11/11 06:43:16;;;;;;;38.20;21.30;;;;;;;8.15;78.48;100478.64;103292;1288;97986;-70
2022/11/11 06:45:50;;;;;;;40.10;22.90;;;;;;;8.21;78.53;100479.29;103524;1288;97979;-71
2022/11/11 06:48:19;;;;;;;41.40;22.40;;;;;;;8.26;78.58;100478.73;103487;1298;112215;-71
2022/11/11 06:50:48;;;;;;;39.80;22.70;;;;;;;8.33;78.47;100476.30;103426;1297;95143;-71
2022/11/11 06:53:19;;;;;;;37.80;21.60;;;;;;;8.42;78.37;100472.45;103413;1291;107066;-72
2022/11/11 06:55:47;;;;;;;39.80;22.40;;;;;;;8.51;78.47;100477.23;103438;1301;97744;-71
2022/11/11 06:58:19;;;;;;;40.90;22.30;;;;;;;8.59;78.54;100478.98;103432;1297;95199;-70
2022/11/11 07:00:49;;;;;;;39.20;21.70;;;;;;;8.70;78.55;100471.64;103409;1284;110903;-70
2022/11/11 07:03:20;;;;;;;39.70;21.20;;;;;;;8.80;78.56;100465.92;103507;1291;96396;-70
2022/11/11 07:05:54;;;;;;;40.00;20.00;;;;;;;8.88;78.44;100462.77;103252;1296;108097;-71
2022/11/11 07:08:27;;;;;;;36.50;21.40;;;;;;;8.96;78.38;100464.20;103467;1304;97904;-72
2022/11/11 07:10:56;;;;;;;38.40;21.00;;;;;;;9.05;78.38;100466.45;103430;1295;97932;-71
2022/11/11 07:13:24;;;;;;;39.10;20.20;;;;;;;9.15;78.49;100466.01;103468;1290;111051;-73
2022/11/11 07:15:52;;;;;;;37.20;20.60;;;;;;;9.25;78.50;100471.39;103467;1297;99361;-69
2022/11/11 07:18:20;;;;;;;44.30;22.40;;;;;;;9.33;78.44;100466.63;103414;1296;107580;-69
2022/11/11 07:20:49;;;;;;;45.50;24.60;;;;;;;9.40;78.40;100465.59;103468;1298;97874;-67
2022/11/11 07:23:17;;;;;;;47.60;25.80;;;;;;;9.47;78.37;100465.64;103570;1296;97951;-70
2022/11/11 07:25:45;;;;;;;50.20;27.20;;;;;;;9.56;78.34;100466.88;103301;1300;111154;-69
2022/11/11 07:28:13;;;;;;;48.00;25.90;;;;;;;9.66;78.30;100465.67;103532;1298;97924;-68
2022/11/11 07:30:41;;;;;;;48.10;25.80;;;;;;;9.72;78.30;100458.87;103522;1291;107447;-68
2022/11/11 07:33:10;;;;;;;40.90;22.00;;;;;;;9.73;78.21;100463.02;103520;1290;97951;-69
2022/11/11 07:35:37;;;;;;;41.90;21.20;;;;;;;9.76;78.30;100461.17;103531;1291;97959;-68
2022/11/11 07:38:05;;;;;;;37.40;19.70;;;;;;;9.78;78.23;100458.17;103513;1298;111374;-68
2022/11/11 07:40:33;;;;;;;36.40;18.20;;;;;;;9.81;78.36;100459.81;103491;1288;97843;-72
2022/11/11 07:43:01;;;;;;;34.80;17.60;;;;;;;9.86;78.31;100464.77;103397;1298;106722;-70
2022/11/11 07:45:31;;;;;;;36.70;18.80;;;;;;;9.89;78.21;100466.58;103267;1293;95276;-71
2022/11/11 07:47:59;;;;;;;34.00;17.70;;;;;;;9.90;78.19;100461.70;103477;1298;97936;-71
2022/11/11 07:50:27;;;;;;;34.50;16.50;;;;;;;9.92;78.12;100464.64;103498;1290;111773;-71
2022/11/11 07:52:55;;;;;;;30.60;16.70;;;;;;;9.94;78.17;100468.61;103231;1297;98387;-72
2022/11/11 07:55:23;;;;;;;33.20;16.70;;;;;;;9.96;78.16;100471.35;103251;1290;107170;-70
2022/11/11 07:57:52;;;;;;;30.10;14.50;;;;;;;9.99;78.13;100469.08;103231;1298;97871;-72
2022/11/11 08:00:22;;;;;;;30.00;15.00;;;;;;;10.02;78.06;100468.39;103281;1290;97884;-72
2022/11/11 08:02:49;;;;;;;27.90;13.80;;;;;;;10.05;78.06;100467.55;103312;1285;111539;-71
2022/11/11 08:05:23;;;;;;;27.70;13.90;;;;;;;10.08;78.09;100465.33;103504;1296;97828;-71
2022/11/11 08:07:50;;;;;;;30.30;15.10;;;;;;;10.09;77.96;100464.22;103367;1297;107411;-71
2022/11/11 08:10:18;;;;;;;29.50;14.10;;;;;;;10.09;77.93;100462.97;103446;1298;97889;-69
2022/11/11 08:15:40;;;;;;;27.80;13.20;;;;;;;10.12;77.82;100450.05;103530;1294;111156;-71
2022/11/11 08:18:10;;;;;;;26.70;12.60;;;;;;;10.13;77.88;100448.02;103587;1296;95536;-72
2022/11/11 08:20:38;;;;;;;24.60;11.60;;;;;;;10.16;77.84;100447.73;103563;1296;107221;-71
2022/11/11 08:23:16;;;;;;;26.10;11.60;;;;;;;10.17;77.83;100446.59;103476;1298;97845;-71
2022/11/11 08:26:07;;;;;;;24.00;11.10;;;;;;;10.18;77.83;100441.43;103509;1290;97851;-69
2022/11/11 08:28:35;;;;;;;25.50;11.80;;;;;;;10.20;77.72;100433.88;103524;1298;111196;-70
2022/11/11 08:31:02;;;;;;;25.40;12.80;;;;;;;10.23;77.79;100435.30;103573;1294;95183;-71
2022/11/11 08:33:32;;;;;;;24.00;11.70;;;;;;;10.29;77.69;100439.48;103458;1285;107618;-70
2022/11/11 08:36:06;;;;;;;24.30;11.30;;;;;;;10.34;77.70;100444.35;103415;1304;98108;-71
2022/11/11 08:38:38;;;;;;;25.70;12.70;;;;;;;10.42;77.63;100453.05;103514;1295;97940;-70
2022/11/11 08:41:08;;;;;;;29.60;12.00;;;;;;;10.45;77.57;100459.61;103512;1290;111004;-75
2022/11/11 08:43:35;;;;;;;25.00;12.00;;;;;;;10.51;77.54;100469.10;103454;1291;97832;-71
2022/11/11 08:46:05;;;;;;;29.70;12.00;;;;;;;10.53;77.51;100466.66;103485;1296;107495;-70
2022/11/11 08:48:34;;;;;;;25.00;10.80;;;;;;;10.59;77.52;100465.12;103423;1292;97852;-70
2022/11/11 08:51:02;;;;;;;27.90;12.20;;;;;;;10.81;77.63;100458.35;103585;1297;95239;-72
2022/11/11 08:53:31;;;;;;;24.00;10.50;;;;;;;11.17;77.80;100462.36;103488;1297;110885;-70
2022/11/11 08:56:04;;;;;;;23.60;10.70;;;;;;;11.58;77.88;100454.33;103450;1296;95115;-70
2022/11/11 08:58:32;;;;;;;24.20;11.00;;;;;;;11.99;77.81;100449.94;103355;1296;107555;-70
2022/11/11 09:01:02;;;;;;;22.50;9.90;;;;;;;12.49;77.86;100449.94;103522;1290;97846;-72
2022/11/11 09:03:31;;;;;;;24.50;11.10;;;;;;;13.09;77.77;100449.77;103567;1290;97862;-74
2022/11/11 09:05:58;;;;;;;23.80;9.90;;;;;;;13.68;77.57;100446.69;103457;1292;110722;-72
2022/11/11 09:08:29;;;;;;;22.60;9.50;;;;;;;14.02;77.14;100449.89;103455;1290;97936;-73
2022/11/11 09:10:58;;;;;;;22.70;8.40;;;;;;;14.44;76.66;100450.54;103407;1291;107411;-70
2022/11/11 09:13:26;;;;;;;19.10;8.40;;;;;;;14.85;76.41;100448.00;103411;1299;98625;-72
2022/11/11 09:15:58;;;;;;;21.80;9.40;;;;;;;15.22;76.04;100447.78;103284;1301;97937;-71
2022/11/11 09:18:30;;;;;;;19.70;8.60;;;;;;;15.47;76.08;100445.66;103382;1292;113925;-70
2022/11/11 09:21:00;;;;;;;24.70;9.10;;;;;;;15.59;75.73;100445.50;103362;1295;97926;-70
2022/11/11 09:23:32;;;;;;;22.90;9.40;;;;;;;15.66;76.00;100444.35;103430;1292;107469;-71
2022/11/11 09:26:03;;;;;;;24.30;9.60;;;;;;;15.69;75.81;100444.13;103480;1291;97966;-71
2022/11/11 09:28:32;;;;;;;19.70;8.90;;;;;;;15.74;75.90;100445.33;103530;1291;97849;-70
2022/11/11 09:31:03;;;;;;;18.80;8.00;;;;;;;15.80;75.82;100436.48;103534;1298;111729;-69
2022/11/11 09:33:52;;;;;;;20.50;8.20;;;;;;;15.87;75.67;100433.02;103483;1295;98499;-72
2022/11/11 09:36:24;;;;;;;21.10;8.70;;;;;;;15.84;75.58;100435.69;103490;1297;107279;-70
2022/11/11 09:38:53;;;;;;;18.80;7.70;;;;;;;15.81;75.28;100436.43;103489;1296;97952;-71
2022/11/11 09:41:44;;;;;;;21.50;9.60;;;;;;;15.66;74.83;100436.59;103530;1297;97910;-72
2022/11/11 09:44:26;;;;;;;22.30;8.80;;;;;;;15.63;75.17;100439.30;103276;1297;110834;-72
2022/11/11 09:47:10;;;;;;;20.20;8.10;;;;;;;15.60;75.17;100437.55;103532;1299;95189;-71
2022/11/11 09:49:49;;;;;;;21.00;8.20;;;;;;;15.48;75.01;100436.11;103469;1296;107310;-70
2022/11/11 09:52:32;;;;;;;20.00;7.90;;;;;;;15.41;74.99;100440.16;103428;1297;95569;-70
2022/11/11 09:55:23;;;;;;;;;;;;;;;15.43;74.87;100440.23;103432;1296;97943;-71
2022/11/11 09:58:05;;;;;;;21.70;8.40;;;;;;;15.35;74.35;100439.52;103370;1304;111087;-70
2022/11/11 10:01:34;;;;;;;20.90;7.60;;;;;;;15.22;74.31;100437.56;103410;1297;97608;-71
2022/11/11 10:04:26;;;;;;;19.40;7.50;;;;;;;15.14;73.91;100433.48;104770;1297;106766;-69
2022/11/11 10:14:37;;;;;;;19.40;7.00;;;;;;;14.87;74.15;100431.59;103529;1297;110542;-70
2022/11/11 10:28:36;;;;;;;17.60;6.70;;;;;;;14.28;73.54;100443.71;103453;1292;97826;-73
2022/11/11 10:34:53;;;;;;;17.90;6.70;;;;;;;14.01;73.32;100447.77;103458;1291;97968;-69
2022/11/11 10:37:42;;;;;;;22.60;7.70;;;;;;;13.95;73.28;100446.21;103481;1296;107152;-69
2022/11/11 10:40:26;;;;;;;18.00;6.90;;;;;;;13.88;73.23;100446.33;103525;1296;98090;-71
2022/11/11 10:42:54;;;;;;;21.30;7.90;;;;;;;13.80;73.19;100444.31;103279;1299;97981;-71
2022/11/11 10:45:50;;;;;;;22.70;8.70;;;;;;;13.74;73.09;100438.48;103516;1301;112123;-69
2022/11/11 10:48:34;;;;;;;22.00;8.90;;;;;;;13.67;72.90;100437.64;103496;1299;97886;-68
2022/11/11 10:51:15;;;;;;;22.20;7.90;;;;;;;13.58;72.91;100437.88;103373;1297;107649;-70
2022/11/11 10:53:49;;;;;;;19.10;7.20;;;;;;;13.49;72.91;100438.41;103416;1296;98000;-69
2022/11/11 10:57:01;;;;;;;19.70;8.00;;;;;;;13.36;72.80;100436.90;103424;1296;95320;-70
2022/11/11 11:00:01;;;;;;;21.70;8.10;;;;;;;13.18;72.62;100436.75;103397;1291;110820;-68
2022/11/11 11:02:55;;;;;;;18.10;7.60;;;;;;;13.16;72.65;100438.67;103460;1299;97939;-70
2022/11/11 11:05:32;;;;;;;;;;;;;;;13.17;72.63;100427.56;103342;1297;107873;-70
2022/11/11 11:08:08;;;;;;;18.00;7.20;;;;;;;13.15;72.52;100427.53;103505;1293;97971;-70
2022/11/11 11:10:52;;;;;;;20.70;8.20;;;;;;;13.17;72.44;100430.06;103534;1291;97863;-68
2022/11/11 11:13:54;;;;;;;22.90;8.20;;;;;;;13.24;72.45;100429.80;103564;1298;111294;-69
2022/11/11 11:16:31;;;;;;;19.90;8.60;;;;;;;13.34;72.44;100419.73;103436;1299;97743;-69
2022/11/11 11:19:24;;;;;;;17.90;6.20;;;;;;;13.45;72.29;100417.29;103539;1291;107150;-69
2022/11/11 11:22:01;;;;;;;18.40;6.60;;;;;;;13.49;71.98;100411.51;103363;1291;97864;-70
2022/11/11 11:24:35;;;;;;;17.90;6.70;;;;;;;13.51;71.83;100412.48;103518;1296;96647;-69
2022/11/11 11:27:26;;;;;;;16.30;5.90;;;;;;;13.50;71.83;100410.04;103496;1294;110744;-70
2022/11/11 11:30:10;;;;;;;17.00;5.80;;;;;;;13.47;71.72;100406.31;103496;1299;98037;-70
2022/11/11 11:33:07;;;;;;;15.00;5.40;;;;;;;13.46;71.62;100404.79;103476;1298;107489;-71
2022/11/11 11:35:41;;;;;;;17.60;5.60;;;;;;;13.43;71.49;100401.92;103540;1290;95261;-70
2022/11/11 11:38:12;;;;;;;16.40;5.40;;;;;;;13.38;71.49;100398.85;103548;1298;97732;-70
2022/11/11 11:40:57;;;;;;;15.60;5.80;;;;;;;13.34;71.51;100399.23;103445;1296;111140;-70
2022/11/11 11:43:36;;;;;;;18.60;5.60;;;;;;;13.31;71.42;100407.61;103448;1291;95099;-73
2022/11/11 11:46:28;;;;;;;15.40;5.00;;;;;;;13.27;71.32;100402.02;103550;1298;107485;-71
2022/11/11 11:48:59;;;;;;;16.70;5.80;;;;;;;13.24;71.22;100390.29;103540;1298;97921;-70
2022/11/11 11:51:44;;;;;;;19.10;6.30;;;;;;;13.25;71.28;100384.30;103519;1291;97746;-71
2022/11/11 11:54:18;;;;;;;15.90;5.70;;;;;;;13.30;71.19;100381.37;103490;1297;110849;-72
2022/11/11 11:56:53;;;;;;;16.00;5.50;;;;;;;13.33;71.17;100385.93;103509;1297;97772;-71
2022/11/11 11:59:28;;;;;;;15.60;6.00;;;;;;;13.34;71.01;100388.58;103341;1283;105528;-73
2022/11/11 12:02:13;;;;;;;18.10;5.90;;;;;;;13.31;70.89;100386.82;103503;1298;97873;-71
2022/11/11 12:05:21;;;;;;;17.60;6.00;;;;;;;13.29;70.88;100390.45;103497;1298;96883;-71
2022/11/11 12:08:09;;;;;;;15.90;5.40;;;;;;;13.29;70.77;100392.28;103590;1290;114158;-71
2022/11/11 12:11:05;;;;;;;15.80;6.30;;;;;;;13.30;70.88;100393.43;103480;1296;95074;-70
2022/11/11 12:14:12;;;;;;;17.50;6.00;;;;;;;13.33;70.71;100391.67;103324;1296;107491;-72
2022/11/11 12:17:08;;;;;;;14.80;5.80;;;;;;;13.34;70.70;100386.44;103540;1296;95242;-69
2022/11/11 12:19:43;;;;;;;17.10;6.90;;;;;;;13.37;70.68;100383.75;103335;1277;97936;-69
2022/11/11 12:22:27;;;;;;;13.20;5.10;;;;;;;13.36;70.57;100371.82;103354;1298;111550;-69
2022/11/11 12:25:25;;;;;;;15.20;5.50;;;;;;;13.35;70.39;100359.83;103529;1296;96643;-69
2022/11/11 12:28:21;;;;;;;16.10;5.80;;;;;;;13.31;70.37;100361.84;103537;1291;107701;-69
2022/11/11 12:31:27;;;;;;;18.20;6.10;;;;;;;13.30;70.32;100370.86;103506;1298;97877;-68
2022/11/11 12:34:14;;;;;;;19.50;5.40;;;;;;;13.26;70.24;100363.60;103499;1292;97891;-68
2022/11/11 12:36:55;;;;;;;14.90;5.10;;;;;;;13.24;70.13;100361.58;103511;1296;110068;-69
2022/11/11 12:39:50;;;;;;;14.50;4.50;;;;;;;13.22;70.12;100361.14;103556;1290;97961;-68
2022/11/11 12:42:47;;;;;;;13.10;4.60;;;;;;;13.21;70.07;100372.30;103535;1298;107231;-69
2022/11/11 12:45:23;;;;;;;16.70;5.60;;;;;;;13.19;69.96;100370.84;103483;1292;97932;-69
2022/11/11 12:48:06;;;;;;;13.60;5.30;;;;;;;13.18;70.01;100366.42;103533;1291;97962;-70
2022/11/11 12:51:06;;;;;;;15.50;5.60;;;;;;;13.16;69.93;100361.54;103570;1297;111837;-70
2022/11/11 12:53:56;;;;;;;15.90;5.40;;;;;;;13.14;69.89;100362.04;103585;1290;96684;-69
2022/11/11 12:56:37;;;;;;;15.20;5.40;;;;;;;13.13;69.72;100350.39;103504;1292;107680;-71
2022/11/11 12:59:46;;;;;;;13.20;5.10;;;;;;;13.09;69.55;100346.48;103494;1298;97866;-70
2022/11/11 13:02:13;;;;;;;12.90;5.20;;;;;;;13.05;69.55;100349.08;103425;1298;95526;-69
2022/11/11 13:04:53;;;;;;;16.90;5.70;;;;;;;13.01;69.56;100355.04;103407;1284;111592;-69
2022/11/11 13:08:08;;;;;;;14.90;5.10;;;;;;;12.99;69.53;100347.68;103396;1290;97858;-68
2022/11/11 13:10:54;;;;;;;;;;;;;;;12.95;69.37;100353.95;103226;1300;108080;-69
2022/11/11 13:14:06;;;;;;;14.30;4.60;;;;;;;12.89;69.39;100354.48;103398;1298;98533;-70